Главная страница
METAR-TAF:

METAR-TAF

Аэропорты :

Waterbury-Oxford Airport

Оксфорд, Коннектикут, США

широта: 41-29N, долгота: 073-08W, высота над уровнем моря: 222 м

Текущие метеонаблюдения

Эта сводка был подготовлена 55 минут назад, в 19:51 UTC
Ветер 8 Узел от западный с порывами до 19 Узел, изменяющийся между западный-юго-западный и западно-северо-западный
Температура 12°C
Влажность 62%
Давление 992 hPa
Видимость: 16.1 км
Рассеянная облачность на высоте 3600 фута
Сплошная облачность на высоте 4600 фута
небольшой дождь

METAR: KOXC 171951Z 27008G19KT 240V300 10SM -RA BKN036 OVC046 12/05 A2929 RMK AO2 PK WND 28026/1920 RAB49 SLP931 P0000 T01170050

Время: 16:46 (20:46 UTC)


TAF: отсутствует

Метеонаблюдения и прогнозы для более 4000 аэропортов (сводки METAR и TAF).

Имеющиеся станции представлены на карте желтыми и красными точками.

Чтобы увидеть название станции, наведите на нее мышь.

Затем щелкните, чтобы увидеть метеонаблюдения и метеопрогнозы.

Управление картой: чтобы увеличить масштаб, щелкните зеленые кнопки с черным крестиком; чтобы уменьшить масштаб, щелкните зеленую кнопку с тире; для просмотра соседних карт щелкайте зеленые стрелки.


METAR-TAF: